Time;durP1;ratioP1;P1;durP2;ratioP2;P2;SDS_P1;SDS_P2;PMS_P1;PMS_P2;Temp;Humidity;BMP_temperature;BMP_pressure;BME280_temperature;BME280_humidity;BME280_pressure;Samples;Min_cycle;Max_cycle;Signal;HPM_P1;HPM_P2
2021/09/07 00:01:25;;;;;;;18.55;13.65;;;23.80;46.30;;;;;;5092875;28;20020;-61
2021/09/07 00:03:51;;;;;;;20.00;12.75;;;;;;;;;;5091008;28;20032;-61
2021/09/07 00:06:17;;;;;;;21.67;15.85;;;23.70;47.70;;;;;;5091345;28;20077;-61
2021/09/07 00:08:44;;;;;;;18.92;12.77;;;23.90;47.10;;;;;;5090972;28;20047;-62
2021/09/07 00:11:10;;;;;;;18.40;13.93;;;23.80;45.90;;;;;;5093738;28;20058;-61
2021/09/07 00:13:35;;;;;;;13.75;11.27;;;23.90;45.40;;;;;;5092184;28;20028;-62
2021/09/07 00:16:01;;;;;;;11.98;9.65;;;23.90;45.20;;;;;;5094324;28;20103;-62
2021/09/07 00:18:28;;;;;;;22.13;14.93;;;23.80;45.70;;;;;;5074863;28;20036;-62
2021/09/07 00:20:55;;;;;;;15.85;13.52;;;23.80;45.90;;;;;;5085037;28;20029;-62
2021/09/07 00:23:21;;;;;;;12.77;11.45;;;23.80;46.20;;;;;;5076131;28;20035;-62
2021/09/07 00:25:47;;;;;;;15.23;10.88;;;23.70;46.60;;;;;;5093497;28;20032;-62
2021/09/07 00:28:13;;;;;;;16.17;12.65;;;23.70;46.80;;;;;;5093107;28;20385;-62
2021/09/07 00:30:39;;;;;;;18.05;12.43;;;23.70;48.20;;;;;;5094051;28;20020;-62
2021/09/07 00:33:07;;;;;;;13.80;10.82;;;23.80;49.10;;;;;;5092684;28;20024;-61
2021/09/07 00:35:33;;;;;;;10.85;9.07;;;23.70;48.50;;;;;;5089896;28;20085;-62
2021/09/07 00:37:59;;;;;;;13.85;9.25;;;23.70;48.70;;;;;;5094085;28;20044;-62
2021/09/07 00:40:25;;;;;;;11.60;8.40;;;23.80;45.40;;;;;;5092633;28;20032;-62
2021/09/07 00:42:50;;;;;;;11.65;8.20;;;23.60;43.30;;;;;;5093538;28;20028;-62
2021/09/07 00:45:16;;;;;;;12.18;8.43;;;23.70;43.50;;;;;;5092473;28;20024;-62
2021/09/07 00:47:42;;;;;;;13.32;8.98;;;23.60;43.60;;;;;;5093502;28;20035;-62
2021/09/07 00:50:09;;;;;;;11.82;8.07;;;23.60;43.50;;;;;;5092558;28;20020;-63
2021/09/07 00:52:36;;;;;;;9.25;8.23;;;23.60;43.60;;;;;;5075218;28;20076;-63
2021/09/07 00:55:02;;;;;;;10.10;7.88;;;23.60;44.20;;;;;;5091991;28;20173;-63
2021/09/07 00:57:29;;;;;;;12.90;7.75;;;23.60;43.70;;;;;;5093127;28;20055;-63
2021/09/07 00:59:54;;;;;;;10.57;7.75;;;23.60;43.90;;;;;;5087906;28;20032;-62
2021/09/07 01:02:20;;;;;;;11.15;7.13;;;23.60;45.00;;;;;;5093381;28;20020;-62
2021/09/07 01:04:46;;;;;;;11.10;7.57;;;23.50;44.80;;;;;;5089428;28;20038;-62
2021/09/07 01:07:32;;;;;;;12.15;8.20;;;23.50;44.70;;;;;;5091509;28;20389;-62
2021/09/07 01:09:58;;;;;;;9.02;8.05;;;23.50;44.10;;;;;;5092478;28;20032;-62
2021/09/07 01:12:23;;;;;;;12.52;8.43;;;23.50;44.60;;;;;;5093270;28;20499;-62
2021/09/07 01:14:49;;;;;;;8.60;7.70;;;23.40;43.70;;;;;;5092141;28;20085;-62
2021/09/07 01:17:17;;;;;;;10.52;8.00;;;23.40;43.40;;;;;;5092703;28;20028;-62
2021/09/07 01:19:46;;;;;;;10.45;8.10;;;23.50;43.10;;;;;;5092191;28;20032;-62
2021/09/07 01:22:12;;;;;;;8.88;7.13;;;23.50;42.70;;;;;;5074637;28;20477;-62
2021/09/07 01:24:37;;;;;;;8.85;7.93;;;23.50;43.30;;;;;;5091693;28;20042;-62
2021/09/07 01:27:07;;;;;;;9.00;7.25;;;23.40;43.40;;;;;;5074887;28;20022;-62
2021/09/07 01:29:42;;;;;;;11.02;6.65;;;23.40;43.00;;;;;;5091670;28;20119;-62
2021/09/07 01:32:10;;;;;;;10.73;7.40;;;23.40;43.60;;;;;;5072681;28;20078;-62
2021/09/07 01:34:36;;;;;;;9.82;7.30;;;23.40;43.10;;;;;;5082743;28;20355;-62
2021/09/07 01:37:26;;;;;;;10.30;7.95;;;23.40;43.20;;;;;;5092863;28;20024;-62
2021/09/07 01:39:51;;;;;;;10.95;7.35;;;23.40;43.40;;;;;;5091850;28;20071;-62
2021/09/07 01:42:17;;;;;;;8.52;6.93;;;23.30;43.40;;;;;;5092640;28;20058;-62
2021/09/07 01:44:44;;;;;;;10.88;7.13;;;23.30;43.60;;;;;;5092053;28;20024;-62
2021/09/07 01:47:10;;;;;;;9.23;7.32;;;23.30;43.40;;;;;;5092827;28;20055;-62
2021/09/07 01:49:37;;;;;;;9.38;7.35;;;23.20;43.70;;;;;;5072868;28;20435;-62
2021/09/07 01:52:13;;;;;;;10.27;7.40;;;23.20;43.50;;;;;;5092664;28;20506;-62
2021/09/07 01:54:44;;;;;;;10.25;6.88;;;23.20;43.90;;;;;;5091461;28;20035;-62
2021/09/07 01:57:10;;;;;;;8.65;7.28;;;23.20;43.80;;;;;;5092687;28;20607;-62
2021/09/07 01:59:36;;;;;;;10.02;7.50;;;23.20;44.10;;;;;;5091882;28;20040;-62
2021/09/07 02:02:02;;;;;;;10.38;7.93;;;23.20;44.10;;;;;;5089869;28;20154;-62
2021/09/07 02:04:28;;;;;;;12.50;7.93;;;23.20;44.60;;;;;;5090948;28;20611;-62
2021/09/07 02:06:54;;;;;;;9.73;7.22;;;23.20;44.10;;;;;;5092422;28;20028;-62
2021/09/07 02:09:20;;;;;;;10.23;7.25;;;23.20;44.50;;;;;;5073148;28;20073;-62
2021/09/07 02:11:46;;;;;;;10.77;7.05;;;23.20;44.70;;;;;;5093801;28;20327;-62
2021/09/07 02:14:12;;;;;;;11.40;8.23;;;23.20;45.00;;;;;;5095204;28;20032;-62
2021/09/07 02:16:37;;;;;;;12.23;7.65;;;23.10;44.80;;;;;;5096206;28;20026;-62
2021/09/07 02:19:03;;;;;;;10.95;8.15;;;23.10;44.80;;;;;;5095118;28;20082;-62
2021/09/07 02:21:30;;;;;;;11.18;8.05;;;23.10;44.80;;;;;;5085491;28;20492;-62
2021/09/07 02:23:56;;;;;;;9.13;7.45;;;23.10;44.90;;;;;;5060777;28;20074;-62
2021/09/07 02:26:21;;;;;;;11.55;8.05;;;23.10;45.10;;;;;;5096355;28;20419;-62
2021/09/07 02:28:47;;;;;;;8.90;7.90;;;23.10;45.30;;;;;;5093803;28;20066;-62
2021/09/07 02:31:13;;;;;;;11.18;7.60;;;23.10;45.50;;;;;;5095195;28;20434;-62
2021/09/07 02:33:38;;;;;;;10.93;7.70;;;23.10;45.50;;;;;;5095597;28;20097;-62
2021/09/07 02:36:04;;;;;;;12.68;7.82;;;23.00;45.20;;;;;;5096000;28;20016;-62
2021/09/07 02:38:30;;;;;;;10.95;7.25;;;23.10;45.40;;;;;;5095490;28;20043;-62
2021/09/07 02:40:58;;;;;;;9.63;7.30;;;23.00;45.40;;;;;;5094995;28;20070;-62
2021/09/07 02:43:25;;;;;;;12.90;7.95;;;23.00;45.30;;;;;;5096103;28;20032;-62
2021/09/07 02:45:51;;;;;;;10.55;6.85;;;23.00;45.40;;;;;;5094725;28;20024;-62
2021/09/07 02:48:17;;;;;;;11.35;7.78;;;23.00;45.40;;;;;;5095994;28;20393;-62
2021/09/07 02:50:42;;;;;;;8.20;7.40;;;23.00;45.60;;;;;;5094385;28;20016;-62
2021/09/07 02:53:08;;;;;;;11.75;7.75;;;23.00;45.80;;;;;;5077306;28;20123;-61
2021/09/07 02:55:34;;;;;;;11.75;7.28;;;23.00;45.70;;;;;;5076257;28;20051;-62
2021/09/07 02:58:00;;;;;;;7.95;7.13;;;22.90;45.50;;;;;;5095402;28;20024;-62
2021/09/07 03:00:25;;;;;;;10.70;6.78;;;23.00;45.40;;;;;;5076638;28;20032;-62
2021/09/07 03:02:52;;;;;;;8.60;7.05;;;23.00;45.80;;;;;;5093272;28;20393;-62
2021/09/07 03:05:17;;;;;;;7.20;6.50;;;22.90;46.00;;;;;;5076331;28;20039;-62
2021/09/07 03:07:43;;;;;;;8.20;6.70;;;22.90;45.50;;;;;;5093666;28;20032;-62
2021/09/07 03:10:09;;;;;;;8.23;6.85;;;22.80;45.50;;;;;;5075911;28;20535;-62
2021/09/07 03:12:35;;;;;;;9.43;6.78;;;22.80;45.40;;;;;;5095190;28;20016;-62
2021/09/07 03:15:00;;;;;;;9.52;6.85;;;22.90;45.70;;;;;;5093859;28;20055;-62
2021/09/07 03:17:26;;;;;;;9.27;6.93;;;22.80;45.30;;;;;;5094093;28;20474;-62
2021/09/07 03:19:51;;;;;;;9.23;6.97;;;22.80;45.40;;;;;;5093952;28;20115;-62
2021/09/07 03:22:20;;;;;;;11.95;7.22;;;22.80;45.00;;;;;;5081196;28;20063;-62
2021/09/07 03:24:45;;;;;;;10.40;7.10;;;22.70;45.00;;;;;;5081078;28;20509;-62
2021/09/07 03:27:11;;;;;;;9.45;6.32;;;22.80;45.20;;;;;;5094790;28;20059;-62
2021/09/07 03:29:37;;;;;;;9.32;6.43;;;22.80;45.40;;;;;;5093375;28;20028;-62
2021/09/07 03:32:04;;;;;;;8.73;6.20;;;22.70;45.30;;;;;;5093791;28;20016;-62
2021/09/07 03:34:29;;;;;;;9.25;6.93;;;22.70;45.30;;;;;;5093087;28;20025;-62
2021/09/07 03:36:55;;;;;;;7.30;6.22;;;22.70;45.40;;;;;;5094108;28;20382;-62
2021/09/07 03:39:21;;;;;;;10.85;7.10;;;22.60;45.30;;;;;;5092582;28;20036;-62
2021/09/07 03:41:46;;;;;;;8.20;6.63;;;22.60;45.30;;;;;;5094378;28;20027;-62
2021/09/07 03:44:12;;;;;;;7.38;5.68;;;22.70;45.30;;;;;;5093492;28;20111;-62
2021/09/07 03:46:37;;;;;;;10.07;6.68;;;22.70;45.90;;;;;;5094677;28;20036;-62
2021/09/07 03:49:03;;;;;;;7.95;6.15;;;22.70;45.50;;;;;;5093417;28;20094;-62
2021/09/07 03:51:29;;;;;;;7.00;6.35;;;22.70;45.80;;;;;;5094146;28;20081;-62
2021/09/07 03:53:54;;;;;;;9.68;6.32;;;22.60;45.70;;;;;;5094370;28;20123;-62
2021/09/07 03:56:20;;;;;;;7.20;6.00;;;22.60;46.00;;;;;;5093387;28;20458;-62
2021/09/07 03:58:46;;;;;;;9.65;6.40;;;22.60;46.20;;;;;;5093979;28;20028;-63
2021/09/07 04:01:12;;;;;;;8.18;5.95;;;22.60;46.40;;;;;;5092305;28;20363;-62
2021/09/07 04:03:37;;;;;;;8.10;6.45;;;22.60;46.40;;;;;;5072251;28;20101;-62
2021/09/07 04:06:03;;;;;;;9.05;5.95;;;22.50;46.50;;;;;;5092455;28;20031;-62
2021/09/07 04:08:29;;;;;;;7.40;6.05;;;22.50;46.60;;;;;;5092914;28;20039;-62
2021/09/07 04:10:54;;;;;;;9.50;6.57;;;22.50;46.50;;;;;;5092863;28;20071;-62
2021/09/07 04:13:20;;;;;;;9.80;6.80;;;22.50;46.60;;;;;;5093130;28;20031;-62
2021/09/07 04:15:45;;;;;;;10.63;6.82;;;22.60;47.00;;;;;;5091986;28;20024;-62
2021/09/07 04:18:11;;;;;;;9.85;6.78;;;22.40;47.10;;;;;;5075294;28;20039;-62
2021/09/07 04:20:37;;;;;;;10.02;6.95;;;22.40;47.90;;;;;;5074716;28;20504;-62
2021/09/07 04:23:02;;;;;;;9.45;6.72;;;22.40;48.40;;;;;;5093671;28;20020;-62
2021/09/07 04:25:29;;;;;;;8.60;6.80;;;22.40;49.50;;;;;;5092932;28;20100;-62
2021/09/07 04:27:54;;;;;;;9.13;6.75;;;22.30;49.40;;;;;;5093668;28;20113;-62
2021/09/07 04:30:21;;;;;;;10.63;7.07;;;22.30;49.30;;;;;;5073526;28;20074;-62
2021/09/07 04:32:47;;;;;;;9.98;7.72;;;22.30;49.50;;;;;;5093518;28;20489;-62
2021/09/07 04:35:13;;;;;;;9.18;7.20;;;22.30;49.70;;;;;;5091812;28;20028;-62
2021/09/07 04:37:39;;;;;;;8.35;6.70;;;22.30;49.50;;;;;;5093417;28;20466;-62
2021/09/07 04:40:06;;;;;;;9.20;7.38;;;22.20;49.80;;;;;;5092321;28;20043;-62
2021/09/07 04:42:31;;;;;;;9.93;7.70;;;22.20;50.30;;;;;;5093344;28;20024;-62
2021/09/07 04:44:57;;;;;;;10.38;7.60;;;22.20;52.60;;;;;;5073747;28;20505;-62
2021/09/07 04:47:22;;;;;;;8.52;6.93;;;22.30;55.00;;;;;;5093253;28;20035;-62
2021/09/07 04:49:49;;;;;;;15.13;8.07;;;22.20;56.70;;;;;;5092727;28;20039;-62
2021/09/07 04:52:21;;;;;;;8.95;7.20;;;;;;;;;;5092908;28;20028;-62
2021/09/07 04:54:47;;;;;;;12.98;8.00;;;22.10;47.00;;;;;;5092487;28;20032;-62
2021/09/07 04:57:12;;;;;;;12.13;6.82;;;22.20;48.40;;;;;;5093028;28;20046;-62
2021/09/07 04:59:38;;;;;;;8.85;7.50;;;22.20;54.10;;;;;;5092483;28;20055;-62
2021/09/07 05:02:04;;;;;;;10.48;7.55;;;22.10;54.50;;;;;;5092751;28;20017;-62
2021/09/07 05:04:30;;;;;;;8.63;6.75;;;22.10;55.00;;;;;;5091423;28;20070;-62
2021/09/07 05:06:55;;;;;;;10.25;7.22;;;22.20;55.80;;;;;;5088329;28;20418;-62
2021/09/07 05:09:21;;;;;;;9.00;7.15;;;22.30;56.50;;;;;;5072568;28;20013;-62
2021/09/07 05:11:46;;;;;;;11.43;7.50;;;22.20;55.70;;;;;;5092805;28;20365;-62
2021/09/07 05:14:12;;;;;;;15.43;8.13;;;22.20;55.20;;;;;;5091032;28;20024;-62
2021/09/07 05:16:37;;;;;;;13.40;7.80;;;22.20;55.30;;;;;;5092387;28;20063;-62
2021/09/07 05:19:03;;;;;;;12.55;7.32;;;22.20;54.90;;;;;;5092760;28;20424;-62
2021/09/07 05:21:29;;;;;;;13.75;7.78;;;22.20;55.10;;;;;;5092239;28;20028;-62
2021/09/07 05:23:56;;;;;;;11.05;7.65;;;22.20;55.00;;;;;;5074262;28;20063;-62
2021/09/07 05:26:21;;;;;;;12.80;8.23;;;22.10;55.20;;;;;;5092024;28;20068;-62
2021/09/07 05:28:47;;;;;;;9.27;7.68;;;22.10;55.50;;;;;;5093159;28;20024;-62
2021/09/07 05:31:13;;;;;;;10.80;8.60;;;22.10;55.90;;;;;;5092117;28;20034;-62
2021/09/07 05:33:44;;;;;;;11.20;8.30;;;22.00;56.20;;;;;;5092786;28;20067;-62
2021/09/07 05:36:09;;;;;;;11.50;8.45;;;22.00;56.50;;;;;;5091738;28;20349;-62
2021/09/07 05:38:35;;;;;;;12.30;8.30;;;22.00;57.20;;;;;;5074810;28;20032;-62
2021/09/07 05:41:01;;;;;;;13.50;8.50;;;22.00;57.80;;;;;;5073337;28;20123;-62
2021/09/07 05:43:26;;;;;;;15.77;8.85;;;22.10;58.50;;;;;;5073624;28;20032;-62
2021/09/07 05:45:52;;;;;;;13.10;8.65;;;22.10;58.80;;;;;;5091835;28;20381;-62
2021/09/07 05:48:18;;;;;;;9.20;8.13;;;22.10;59.40;;;;;;5096484;28;20393;-62
2021/09/07 05:50:43;;;;;;;13.82;9.18;;;22.00;57.40;;;;;;5095766;28;20091;-62
2021/09/07 05:53:09;;;;;;;14.85;8.70;;;22.00;58.00;;;;;;5078069;28;20039;-62
2021/09/07 05:55:35;;;;;;;13.20;8.98;;;21.90;56.40;;;;;;5095497;28;20032;-61
2021/09/07 05:58:01;;;;;;;13.88;9.35;;;22.00;57.10;;;;;;5075148;28;20044;-62
2021/09/07 06:00:29;;;;;;;14.63;8.73;;;22.00;57.10;;;;;;5092669;28;20020;-62
2021/09/07 06:02:57;;;;;;;13.65;9.20;;;22.00;57.10;;;;;;5075120;28;20664;-62
2021/09/07 06:05:23;;;;;;;14.75;10.32;;;22.10;56.80;;;;;;5073296;28;20568;-62
2021/09/07 06:07:49;;;;;;;12.68;9.43;;;22.00;57.40;;;;;;5081388;28;20028;-62
2021/09/07 06:10:14;;;;;;;15.57;10.20;;;22.00;58.20;;;;;;5072075;28;20075;-62
2021/09/07 06:12:40;;;;;;;12.07;9.95;;;22.00;57.30;;;;;;5093409;28;20081;-63
2021/09/07 06:15:06;;;;;;;16.40;10.15;;;22.00;57.60;;;;;;5091479;28;20028;-62
2021/09/07 06:17:32;;;;;;;18.02;10.77;;;22.00;57.70;;;;;;5093424;28;20034;-62
2021/09/07 06:19:58;;;;;;;14.45;11.25;;;22.10;57.00;;;;;;5093029;28;20108;-62
2021/09/07 06:22:24;;;;;;;15.88;10.82;;;22.00;56.50;;;;;;5092929;28;20032;-62
2021/09/07 06:24:52;;;;;;;16.50;11.00;;;22.00;56.70;;;;;;5091987;28;20359;-63
2021/09/07 06:27:18;;;;;;;16.30;11.30;;;22.10;56.90;;;;;;5092879;28;20027;-63
2021/09/07 06:29:44;;;;;;;13.93;10.77;;;22.00;57.20;;;;;;5092742;28;20058;-63
2021/09/07 06:32:09;;;;;;;18.10;11.63;;;22.00;57.00;;;;;;5092598;28;20501;-63
2021/09/07 06:34:35;;;;;;;19.23;11.13;;;22.10;56.90;;;;;;5093336;28;20024;-62
2021/09/07 06:37:02;;;;;;;18.17;11.38;;;22.20;56.60;;;;;;5092028;28;20038;-63
2021/09/07 06:39:28;;;;;;;18.00;11.63;;;22.20;56.80;;;;;;5074477;28;20237;-62
2021/09/07 06:41:53;;;;;;;21.33;11.93;;;22.30;56.70;;;;;;5091080;28;20093;-62
2021/09/07 06:44:19;;;;;;;21.08;12.57;;;22.30;56.70;;;;;;5093519;28;20093;-63
2021/09/07 06:46:45;;;;;;;14.30;12.85;;;22.30;56.20;;;;;;5091989;28;20050;-62
2021/09/07 06:49:10;;;;;;;16.88;12.25;;;22.30;56.10;;;;;;5093243;28;20178;-62
2021/09/07 06:51:36;;;;;;;17.65;11.75;;;22.40;56.20;;;;;;5091619;28;20020;-63
2021/09/07 06:54:02;;;;;;;15.68;12.90;;;22.50;55.90;;;;;;5092418;28;20031;-63
2021/09/07 06:56:28;;;;;;;17.27;12.50;;;22.60;55.90;;;;;;5090525;28;20048;-63
2021/09/07 06:58:53;;;;;;;17.40;12.18;;;22.70;55.50;;;;;;5097066;28;20408;-62
2021/09/07 07:01:19;;;;;;;17.48;12.77;;;22.70;55.40;;;;;;5094514;28;20031;-63
2021/09/07 07:03:44;;;;;;;23.17;13.25;;;22.80;55.40;;;;;;5076290;28;20507;-63
2021/09/07 07:06:10;;;;;;;17.23;12.88;;;22.80;55.30;;;;;;5093829;28;20024;-63
2021/09/07 07:08:35;;;;;;;15.40;13.80;;;22.90;54.90;;;;;;5093654;28;20032;-63
2021/09/07 07:11:01;;;;;;;18.20;14.27;;;23.10;55.20;;;;;;5093999;28;20062;-63
2021/09/07 07:13:27;;;;;;;20.90;13.57;;;23.00;55.00;;;;;;5075861;28;20477;-63
2021/09/07 07:15:52;;;;;;;22.40;14.90;;;23.10;55.30;;;;;;5092882;28;20477;-63
2021/09/07 07:18:18;;;;;;;18.92;15.20;;;23.10;55.00;;;;;;5093317;28;20105;-63
2021/09/07 07:20:44;;;;;;;23.45;15.32;;;23.10;55.10;;;;;;5074481;28;20092;-63
2021/09/07 07:23:10;;;;;;;17.52;13.55;;;23.20;54.80;;;;;;5093750;28;20477;-63
2021/09/07 07:25:35;;;;;;;16.30;13.60;;;23.10;54.60;;;;;;5104358;28;20071;-63
2021/09/07 07:28:01;;;;;;;22.23;14.45;;;23.10;54.60;;;;;;5114588;28;20031;-63
2021/09/07 07:30:26;;;;;;;24.45;14.35;;;23.20;54.80;;;;;;5098586;28;20016;-63
2021/09/07 07:32:54;;;;;;;20.48;12.90;;;23.20;54.70;;;;;;5094071;28;20030;-63
2021/09/07 07:35:20;;;;;;;29.73;15.85;;;23.30;54.40;;;;;;5092966;28;20027;-62
2021/09/07 07:37:46;;;;;;;26.92;13.60;;;23.30;53.90;;;;;;5092415;28;20038;-63
2021/09/07 07:40:11;;;;;;;22.98;13.32;;;23.40;53.90;;;;;;5092995;28;20028;-63
2021/09/07 07:42:37;;;;;;;26.60;12.73;;;23.30;53.10;;;;;;5093612;28;20077;-63
2021/09/07 07:45:03;;;;;;;17.73;12.93;;;23.50;53.30;;;;;;5075041;28;20032;-63
2021/09/07 07:47:29;;;;;;;23.20;14.88;;;23.50;52.60;;;;;;5093951;28;20016;-63
2021/09/07 07:49:54;;;;;;;19.10;13.85;;;23.60;52.50;;;;;;5105799;28;20034;-63
2021/09/07 07:52:20;;;;;;;17.55;13.40;;;23.70;52.30;;;;;;5075552;28;20028;-63
2021/09/07 07:54:49;;;;;;;17.15;13.68;;;23.70;51.90;;;;;;5093792;28;20032;-63
2021/09/07 07:57:16;;;;;;;25.48;15.07;;;23.70;51.50;;;;;;5092555;28;20044;-63
2021/09/07 07:59:41;;;;;;;16.33;14.10;;;23.80;51.20;;;;;;5075322;28;20134;-63
2021/09/07 08:02:07;;;;;;;19.02;13.00;;;23.90;51.00;;;;;;5092262;28;20024;-63
2021/09/07 08:04:32;;;;;;;16.25;13.15;;;24.00;50.60;;;;;;5093341;28;20040;-63
2021/09/07 08:06:58;;;;;;;15.95;14.35;;;23.70;50.40;;;;;;5092401;28;20024;-62
2021/09/07 08:09:24;;;;;;;21.95;13.40;;;23.80;50.60;;;;;;5092663;28;20032;-63
2021/09/07 08:11:49;;;;;;;18.17;15.23;;;23.90;50.60;;;;;;5091986;28;20020;-63
2021/09/07 08:14:15;;;;;;;17.60;12.50;;;23.70;50.70;;;;;;5093502;28;20382;-63
2021/09/07 08:16:40;;;;;;;17.25;13.35;;;23.70;50.30;;;;;;5092076;28;20077;-63
2021/09/07 08:19:06;;;;;;;17.52;12.82;;;23.60;50.20;;;;;;5075004;28;20036;-63
2021/09/07 08:21:32;;;;;;;22.23;13.07;;;23.70;50.50;;;;;;5091680;28;20104;-63
2021/09/07 08:23:57;;;;;;;14.93;12.40;;;23.70;50.80;;;;;;5093172;28;20024;-63
2021/09/07 08:26:23;;;;;;;17.42;12.68;;;23.80;50.70;;;;;;5092259;28;20466;-63
2021/09/07 08:28:49;;;;;;;17.05;12.27;;;23.80;50.10;;;;;;5088300;28;20027;-63
2021/09/07 08:31:14;;;;;;;14.43;11.23;;;23.80;49.80;;;;;;5092796;28;20035;-63
2021/09/07 08:33:40;;;;;;;15.68;10.48;;;23.90;48.90;;;;;;5092094;28;20043;-63
2021/09/07 08:36:06;;;;;;;13.50;10.27;;;23.80;49.90;;;;;;5074844;28;20016;-63
2021/09/07 08:38:31;;;;;;;12.98;10.57;;;23.90;49.00;;;;;;5092560;28;20043;-63
2021/09/07 08:40:58;;;;;;;12.77;9.73;;;23.90;49.00;;;;;;5113185;28;20020;-63
2021/09/07 08:43:24;;;;;;;12.98;11.05;;;24.00;49.00;;;;;;5089062;28;20045;-63
2021/09/07 08:45:56;;;;;;;12.13;8.63;;;24.00;48.90;;;;;;5086751;28;20338;-63
2021/09/07 08:48:24;;;;;;;11.35;7.65;;;24.10;48.70;;;;;;5070694;28;20024;-62
2021/09/07 08:50:51;;;;;;;13.35;9.45;;;24.10;47.80;;;;;;5092576;28;20481;-62
2021/09/07 08:53:16;;;;;;;11.93;10.63;;;24.30;46.40;;;;;;5091909;28;20024;-63
2021/09/07 08:55:42;;;;;;;13.55;9.45;;;24.30;46.10;;;;;;5098970;28;20131;-62
2021/09/07 08:58:08;;;;;;;12.90;8.40;;;24.30;45.20;;;;;;5069420;28;20497;-63
2021/09/07 09:00:34;;;;;;;10.52;6.97;;;24.40;45.30;;;;;;5078661;28;20035;-63
2021/09/07 09:03:11;;;;;;;10.55;7.43;;;24.50;44.80;;;;;;5090915;28;20031;-63
2021/09/07 09:05:40;;;;;;;9.50;7.53;;;24.60;45.60;;;;;;5090079;28;20024;-63
2021/09/07 09:08:14;;;;;;;8.80;6.70;;;24.70;42.10;;;;;;5089527;28;20047;-63
2021/09/07 09:10:41;;;;;;;11.45;7.03;;;24.80;42.30;;;;;;5092299;28;20850;-63
2021/09/07 09:13:09;;;;;;;7.80;6.10;;;24.80;42.50;;;;;;5091511;28;20099;-63
2021/09/07 09:15:36;;;;;;;9.80;7.00;;;24.80;42.30;;;;;;5089755;28;20028;-63
2021/09/07 09:18:10;;;;;;;8.50;6.43;;;24.90;41.70;;;;;;5091958;28;20093;-63
2021/09/07 09:20:38;;;;;;;7.18;6.47;;;24.90;41.10;;;;;;5091895;28;20035;-63
2021/09/07 09:23:06;;;;;;;11.38;6.82;;;24.90;41.70;;;;;;5090773;28;20043;-63
2021/09/07 09:25:32;;;;;;;10.75;8.10;;;25.00;43.30;;;;;;5092020;28;20481;-63
2021/09/07 09:27:58;;;;;;;8.38;7.13;;;25.00;39.20;;;;;;5091221;28;20052;-63
2021/09/07 09:30:29;;;;;;;17.90;8.07;;;25.00;39.90;;;;;;5092030;28;20032;-63
2021/09/07 09:32:55;;;;;;;7.82;6.90;;;25.10;39.00;;;;;;5090973;28;20027;-63
2021/09/07 09:35:21;;;;;;;10.63;6.90;;;25.20;39.10;;;;;;5092006;28;20027;-63
2021/09/07 09:38:06;;;;;;;9.52;6.15;;;25.30;38.50;;;;;;5090831;28;20035;-63
2021/09/07 09:40:33;;;;;;;10.75;7.20;;;25.40;39.40;;;;;;5092037;28;20048;-63
2021/09/07 09:43:17;;;;;;;14.25;7.30;;;25.40;42.10;;;;;;5091135;28;20094;-63
2021/09/07 09:45:43;;;;;;;8.15;6.20;;;25.50;44.50;;;;;;5091684;28;20028;-63
2021/09/07 09:48:27;;;;;;;8.95;6.47;;;25.50;47.20;;;;;;5091043;28;20043;-63
2021/09/07 09:51:35;;;;;;;9.80;7.43;;;25.60;47.70;;;;;;5084066;28;20505;-63
2021/09/07 09:54:01;;;;;;;9.68;8.50;;;25.60;52.50;;;;;;5090001;28;20020;-63
2021/09/07 09:56:28;;;;;;;13.05;8.13;;;25.60;48.70;;;;;;5105374;28;20055;-63
2021/09/07 09:58:55;;;;;;;8.80;7.38;;;25.80;51.50;;;;;;5100778;28;20138;-63
2021/09/07 10:01:21;;;;;;;11.02;7.38;;;25.80;48.90;;;;;;5073795;28;20028;-63
2021/09/07 10:03:49;;;;;;;14.43;9.30;;;26.00;51.60;;;;;;5089329;28;20038;-63
2021/09/07 10:06:17;;;;;;;9.80;8.75;;;26.10;49.60;;;;;;5101757;28;20032;-63
2021/09/07 10:09:14;;;;;;;9.90;8.38;;;;;;;;;;5101992;28;20500;-63
2021/09/07 10:11:40;;;;;;;22.52;17.42;;;26.10;46.20;;;;;;5088202;28;20337;-63
2021/09/07 10:14:08;;;;;;;11.57;8.70;;;26.30;52.30;;;;;;5090857;28;20527;-63
2021/09/07 10:16:41;;;;;;;8.10;7.25;;;26.20;51.30;;;;;;5092815;28;20028;-63
2021/09/07 10:19:14;;;;;;;9.98;8.07;;;;;;;;;;5099800;28;20040;-63
2021/09/07 10:26:40;;;;;;;16.65;8.35;;;26.60;34.20;;;;;;5091861;28;20031;-63
2021/09/07 10:29:11;;;;;;;10.45;7.65;;;26.70;33.80;;;;;;5090141;28;20039;-63
2021/09/07 10:31:44;;;;;;;10.05;7.85;;;26.60;29.70;;;;;;5086113;28;20031;-63
2021/09/07 10:34:11;;;;;;;11.15;7.55;;;;;;;;;;5095779;28;20031;-63
2021/09/07 10:36:58;;;;;;;7.22;6.60;;;27.10;40.10;;;;;;5094400;28;20020;-63
2021/09/07 10:39:32;;;;;;;11.80;7.38;;;;;;;;;;5088483;28;20405;-62
2021/09/07 10:41:59;;;;;;;8.73;7.53;;;26.80;53.20;;;;;;5093180;28;20605;-62
2021/09/07 10:44:59;;;;;;;12.68;7.32;;;26.90;40.50;;;;;;5091736;28;20058;-62
2021/09/07 10:47:40;;;;;;;12.07;8.75;;;;;;;;;;5092256;28;20020;-63
2021/09/07 10:50:05;;;;;;;10.55;8.02;;;27.00;51.40;;;;;;5088933;28;20040;-63
2021/09/07 10:52:32;;;;;;;9.38;7.68;;;27.10;36.00;;;;;;5086239;28;20036;-63
2021/09/07 10:55:15;;;;;;;9.80;8.70;;;27.20;25.50;;;;;;5091077;28;20034;-63
2021/09/07 10:57:44;;;;;;;10.10;7.30;;;27.40;22.80;;;;;;5091022;28;20028;-63
2021/09/07 11:00:10;;;;;;;7.90;6.78;;;27.60;23.40;;;;;;5091123;28;20397;-63
2021/09/07 11:02:52;;;;;;;8.65;6.70;;;;;;;;;;5090710;28;20035;-63
2021/09/07 11:05:19;;;;;;;8.23;6.68;;;;;;;;;;5087960;28;20043;-64
2021/09/07 11:07:48;;;;;;;9.82;6.68;;;27.70;53.40;;;;;;5088946;28;20043;-63
2021/09/07 11:10:17;;;;;;;9.23;6.68;;;;;;;;;;5089645;28;20047;-63
2021/09/07 11:12:50;;;;;;;14.15;11.45;;;;;;;;;;5091548;28;20390;-64
2021/09/07 11:15:23;;;;;;;10.02;8.88;;;;;;;;;;5091268;28;20489;-62
2021/09/07 11:17:51;;;;;;;9.43;7.15;;;;;;;;;;5092352;28;20363;-62
2021/09/07 11:20:17;;;;;;;10.20;7.88;;;28.50;39.80;;;;;;5091537;28;20077;-62
2021/09/07 11:22:43;;;;;;;8.48;7.22;;;28.30;33.30;;;;;;5091212;28;20028;-63
2021/09/07 11:25:12;;;;;;;8.68;6.82;;;28.40;33.40;;;;;;5091310;28;20478;-63
2021/09/07 11:27:59;;;;;;;10.13;7.03;;;28.80;31.90;;;;;;5091583;28;20049;-63
2021/09/07 11:30:48;;;;;;;10.20;8.25;;;29.00;36.00;;;;;;5090956;28;20052;-62
2021/09/07 11:33:26;;;;;;;7.70;6.63;;;;;;;;;;5092041;28;20508;-62
2021/09/07 11:35:58;;;;;;;9.77;6.60;;;29.00;34.90;;;;;;5106190;28;20035;-62
2021/09/07 11:38:28;;;;;;;8.00;6.50;;;29.10;30.80;;;;;;5075846;28;20085;-63
2021/09/07 11:40:56;;;;;;;6.88;6.18;;;29.30;30.50;;;;;;5093588;28;20142;-63
2021/09/07 11:43:36;;;;;;;10.68;8.00;;;29.50;26.70;;;;;;5094351;28;20054;-63
2021/09/07 11:46:23;;;;;;;11.38;8.13;;;29.70;31.70;;;;;;5068392;28;20483;-62
2021/09/07 11:48:53;;;;;;;9.45;8.38;;;;;;;;;;5093204;28;20040;-63
2021/09/07 11:51:26;;;;;;;10.55;6.82;;;29.90;45.10;;;;;;5093925;28;20547;-63
2021/09/07 11:53:57;;;;;;;10.73;8.25;;;30.10;30.60;;;;;;5092916;28;20028;-63
2021/09/07 11:56:28;;;;;;;10.18;7.82;;;29.80;17.50;;;;;;5075125;28;20527;-63
2021/09/07 11:59:18;;;;;;;12.20;11.02;;;29.50;17.60;;;;;;5090210;28;20036;-63
2021/09/07 12:01:48;;;;;;;11.70;8.68;;;29.70;17.30;;;;;;5093468;28;20414;-63
2021/09/07 12:04:17;;;;;;;19.20;9.50;;;29.70;17.50;;;;;;5091750;28;20474;-63
2021/09/07 12:06:53;;;;;;;12.18;8.30;;;30.60;17.90;;;;;;5092185;28;20023;-63
2021/09/07 12:09:27;;;;;;;9.85;8.02;;;30.10;18.90;;;;;;5074834;28;20516;-63
2021/09/07 12:12:08;;;;;;;9.55;7.45;;;30.70;39.10;;;;;;5084313;28;20020;-63
2021/09/07 12:14:44;;;;;;;10.43;8.02;;;31.60;38.50;;;;;;5092498;28;20390;-63
2021/09/07 12:17:17;;;;;;;10.75;8.05;;;32.90;23.70;;;;;;5092925;28;20029;-63
2021/09/07 12:19:51;;;;;;;9.80;7.45;;;33.90;17.60;;;;;;5091557;28;20032;-67
2021/09/07 12:22:26;;;;;;;10.73;8.30;;;34.80;14.60;;;;;;5093328;28;20105;-63
2021/09/07 12:25:12;;;;;;;9.52;7.93;;;33.70;20.30;;;;;;5091988;28;20031;-64
2021/09/07 12:27:44;;;;;;;11.00;7.63;;;33.20;20.80;;;;;;5092826;28;20032;-64
2021/09/07 12:30:16;;;;;;;11.48;8.32;;;32.60;23.90;;;;;;5090088;28;20059;-64
2021/09/07 12:33:01;;;;;;;9.30;7.50;;;32.20;16.70;;;;;;5091736;28;20081;-65
2021/09/07 12:35:31;;;;;;;9.80;8.35;;;32.20;14.00;;;;;;5091914;28;20086;-62
2021/09/07 12:37:59;;;;;;;11.23;7.18;;;33.00;13.50;;;;;;5092182;28;20024;-64
2021/09/07 12:40:26;;;;;;;9.35;7.00;;;33.60;12.30;;;;;;5091266;28;20035;-69
2021/09/07 12:42:51;;;;;;;8.48;6.28;;;32.50;13.10;;;;;;5074305;28;20024;-63
2021/09/07 12:45:17;;;;;;;10.23;8.48;;;31.90;13.90;;;;;;5092086;28;20096;-63
2021/09/07 12:47:42;;;;;;;16.73;14.20;;;31.80;13.70;;;;;;5111810;28;20064;-65
2021/09/07 12:50:09;;;;;;;9.68;8.48;;;32.60;14.40;;;;;;5093780;28;20054;-65
2021/09/07 12:52:35;;;;;;;10.57;8.23;;;32.60;13.40;;;;;;5087773;28;20028;-65